Time;durP1;ratioP1;P1;durP2;ratioP2;P2;SDS_P1;SDS_P2;PMS_P1;PMS_P2;Temp;Humidity;BMP_temperature;BMP_pressure;BME280_temperature;BME280_humidity;BME280_pressure;Samples;Min_cycle;Max_cycle;Signal;HPM_P1;HPM_P2
2021/12/06 00:01:55;;;;;;;90.40;59.30;;;;;;;2.40;100.00;98013.45;102332;1311;76316;-75
2021/12/06 00:04:27;;;;;;;93.90;58.90;;;;;;;2.43;100.00;98014.33;102250;1317;70779;-76
2021/12/06 00:06:58;;;;;;;95.90;60.70;;;;;;;2.46;100.00;98013.70;101943;1316;74639;-76
2021/12/06 00:09:27;;;;;;;95.40;60.70;;;;;;;2.48;100.00;98013.91;102304;1314;62172;-75
2021/12/06 00:12:00;;;;;;;89.10;58.30;;;;;;;2.47;100.00;98011.31;102013;1317;62121;-74
2021/12/06 00:14:33;;;;;;;90.60;57.20;;;;;;;2.45;100.00;98015.67;102259;1313;77245;-76
2021/12/06 00:17:04;;;;;;;86.80;56.90;;;;;;;2.40;99.99;98012.57;102320;1313;69671;-75
2021/12/06 00:19:31;;;;;;;;;;;;;;;2.40;100.00;98011.67;101936;1316;74479;-76
2021/12/06 00:21:59;;;;;;;92.70;57.50;;;;;;;2.41;100.00;98009.86;102304;1311;62111;-76
2021/12/06 00:24:26;;;;;;;94.90;59.60;;;;;;;2.45;100.00;98008.80;102395;1311;62082;-75
2021/12/06 00:26:53;;;;;;;97.80;60.20;;;;;;;2.47;100.00;98004.14;102284;1310;77027;-76
2021/12/06 00:29:20;;;;;;;98.60;60.50;;;;;;;2.48;100.00;98000.25;102324;1310;70121;-76
2021/12/06 00:31:47;;;;;;;93.30;58.10;;;;;;;2.47;100.00;98001.34;102304;1314;73951;-76
2021/12/06 00:34:17;;;;;;;94.20;60.50;;;;;;;2.48;100.00;98004.60;102248;1313;62128;-76
2021/12/06 00:36:53;;;;;;;96.90;60.00;;;;;;;2.48;100.00;98002.35;102408;1310;62129;-76
2021/12/06 00:39:22;;;;;;;90.00;55.70;;;;;;;2.47;100.00;98002.08;102318;1310;76316;-77
2021/12/06 00:41:50;;;;;;;94.20;60.10;;;;;;;2.45;100.00;98005.48;102299;1314;70224;-75
2021/12/06 00:44:16;;;;;;;92.10;59.60;;;;;;;2.43;100.00;98006.80;102271;1310;74691;-76
2021/12/06 00:46:43;;;;;;;89.80;59.30;;;;;;;2.39;100.00;98012.08;102358;1310;62208;-75
2021/12/06 00:49:11;;;;;;;92.90;64.00;;;;;;;2.36;100.00;98009.76;102305;1310;62041;-76
2021/12/06 00:51:38;;;;;;;98.70;64.30;;;;;;;2.33;100.00;98008.53;102388;1310;77266;-76
2021/12/06 00:54:04;;;;;;;99.50;66.30;;;;;;;2.31;100.00;98009.88;102279;1310;69830;-75
2021/12/06 00:56:31;;;;;;;99.80;64.30;;;;;;;2.28;100.00;98014.91;102286;1314;74959;-76
2021/12/06 00:58:58;;;;;;;98.30;62.50;;;;;;;2.25;100.00;98021.36;102285;1311;62183;-76
2021/12/06 01:01:24;;;;;;;93.20;60.00;;;;;;;2.24;100.00;98026.69;102308;1311;62124;-76
2021/12/06 01:03:51;;;;;;;94.10;59.80;;;;;;;2.23;100.00;98027.10;102291;1311;77654;-76
2021/12/06 01:06:17;;;;;;;93.20;62.90;;;;;;;2.25;100.00;98031.18;102329;1311;69545;-76
2021/12/06 01:08:44;;;;;;;96.00;63.60;;;;;;;2.28;100.00;98037.68;102338;1311;73524;-74
2021/12/06 01:11:11;;;;;;;102.70;68.40;;;;;;;2.29;100.00;98039.73;102332;1310;62278;-75
2021/12/06 01:13:39;;;;;;;97.10;64.90;;;;;;;2.27;100.00;98042.81;101903;1317;62165;-76
2021/12/06 01:16:09;;;;;;;110.70;69.00;;;;;;;2.29;100.00;98049.57;102316;1311;77007;-74
2021/12/06 01:18:37;;;;;;;107.20;67.40;;;;;;;2.27;100.00;98056.30;102363;1310;69733;-75
2021/12/06 01:21:19;;;;;;;107.70;69.90;;;;;;;2.25;100.00;98055.73;102452;1310;72695;-76
2021/12/06 01:23:58;;;;;;;100.60;65.50;;;;;;;2.22;100.00;98045.70;102385;1314;62133;-76
2021/12/06 01:39:55;;;;;;;106.10;69.60;;;;;;;2.25;100.00;97990.15;102461;1314;62117;-76
2021/12/06 01:42:23;;;;;;;95.50;61.70;;;;;;;2.23;100.00;97990.07;102102;1313;76310;-76
2021/12/06 01:44:59;;;;;;;99.30;64.10;;;;;;;2.21;100.00;97994.59;102367;1318;69303;-76
2021/12/06 01:47:31;;;;;;;95.70;58.70;;;;;;;2.17;100.00;97999.31;102264;1317;73489;-76
2021/12/06 01:50:03;;;;;;;93.00;58.40;;;;;;;2.16;100.00;98006.21;102282;1303;62218;-75
2021/12/06 01:52:36;;;;;;;90.40;56.40;;;;;;;2.16;100.00;98017.23;102266;1314;62154;-73
2021/12/06 01:55:06;;;;;;;94.30;58.40;;;;;;;2.18;100.00;98015.59;101816;1314;77204;-75
2021/12/06 01:57:33;;;;;;;;;;;;;;;2.17;100.00;98001.40;102441;1311;69976;-74
2021/12/06 02:00:00;;;;;;;89.50;55.60;;;;;;;2.16;100.00;97997.63;102313;1311;62334;-74
2021/12/06 02:02:29;;;;;;;87.40;56.30;;;;;;;2.16;100.00;98001.30;102303;1310;62123;-76
2021/12/06 02:04:56;;;;;;;96.20;59.80;;;;;;;2.13;100.00;98008.11;102287;1311;62186;-76
2021/12/06 02:07:25;;;;;;;106.90;62.60;;;;;;;2.10;100.00;98009.81;102324;1314;76307;-75
2021/12/06 02:09:54;;;;;;;105.20;63.70;;;;;;;2.08;100.00;98011.31;102295;1316;70528;-75
2021/12/06 02:12:21;;;;;;;96.30;59.30;;;;;;;2.08;100.00;98012.17;102267;1310;73256;-75
2021/12/06 02:15:07;;;;;;;87.60;56.00;;;;;;;2.08;100.00;98011.16;102321;1313;62118;-76
2021/12/06 02:17:42;;;;;;;93.30;59.70;;;;;;;2.07;100.00;98010.67;102288;1314;62125;-74
2021/12/06 02:20:15;;;;;;;90.20;57.60;;;;;;;2.10;100.00;98016.30;102318;1311;77367;-76
2021/12/06 02:22:42;;;;;;;90.90;60.10;;;;;;;2.12;100.00;98016.57;102318;1313;69051;-75
2021/12/06 02:25:15;;;;;;;91.50;59.40;;;;;;;2.10;100.00;98013.48;102382;1311;74929;-77
2021/12/06 02:27:42;;;;;;;89.60;59.00;;;;;;;2.11;100.00;98013.29;102386;1316;62136;-76
2021/12/06 02:30:10;;;;;;;93.90;59.10;;;;;;;2.08;100.00;98010.45;102044;1317;62203;-75
2021/12/06 02:32:37;;;;;;;92.40;57.00;;;;;;;2.04;100.00;98011.50;102474;1310;76896;-78
2021/12/06 02:35:06;;;;;;;91.00;58.30;;;;;;;1.98;100.00;98013.74;102252;1314;69518;-77
2021/12/06 02:37:34;;;;;;;89.70;57.00;;;;;;;1.93;100.00;98019.38;102265;1313;73262;-75
2021/12/06 02:40:08;;;;;;;78.40;53.00;;;;;;;1.95;100.00;98028.05;102442;1311;62098;-75
2021/12/06 02:42:37;;;;;;;77.80;53.70;;;;;;;1.97;100.00;98030.59;102253;1313;62229;-76
2021/12/06 02:45:07;;;;;;;81.20;52.90;;;;;;;1.98;100.00;98031.95;102376;1310;76748;-75
2021/12/06 02:47:34;;;;;;;81.60;54.70;;;;;;;2.00;100.00;98033.80;101970;1317;69545;-76
2021/12/06 02:50:07;;;;;;;82.70;54.90;;;;;;;2.07;100.00;98043.63;102374;1311;73446;-75
2021/12/06 02:52:34;;;;;;;82.40;55.00;;;;;;;2.09;100.00;98048.05;102372;1310;62151;-75
2021/12/06 02:55:11;;;;;;;88.80;57.60;;;;;;;2.06;100.00;98051.01;102325;1311;62105;-75
2021/12/06 02:57:38;;;;;;;89.00;55.60;;;;;;;2.03;100.00;98054.16;102334;1310;76259;-76
2021/12/06 03:00:30;;;;;;;81.50;54.60;;;;;;;2.00;100.00;98049.19;101920;1310;70309;-77
2021/12/06 03:02:56;;;;;;;77.80;53.10;;;;;;;2.00;100.00;98047.61;101994;1316;74522;-76
2021/12/06 03:05:23;;;;;;;77.00;49.40;;;;;;;2.01;100.00;98040.02;102291;1313;62106;-75
2021/12/06 03:07:57;;;;;;;72.40;46.50;;;;;;;2.04;100.00;98042.17;102374;1310;62087;-76
2021/12/06 03:10:24;;;;;;;73.60;46.70;;;;;;;2.08;100.00;98041.63;102439;1310;76132;-75
2021/12/06 03:12:50;;;;;;;70.10;47.10;;;;;;;2.10;100.00;98041.52;102463;1313;69515;-75
2021/12/06 03:15:18;;;;;;;72.90;48.80;;;;;;;2.10;100.00;98040.46;102241;1316;70731;-76
2021/12/06 03:17:46;;;;;;;70.20;47.20;;;;;;;2.09;100.00;98039.31;102536;1310;62177;-76
2021/12/06 03:20:15;;;;;;;67.60;46.70;;;;;;;2.09;100.00;98040.35;102251;1316;62329;-74
2021/12/06 03:22:44;;;;;;;75.70;48.20;;;;;;;2.06;100.00;98037.53;102615;1310;77141;-75
2021/12/06 03:25:13;;;;;;;74.60;47.10;;;;;;;2.04;100.00;98035.02;102616;1310;69843;-76
2021/12/06 03:27:40;;;;;;;65.60;45.40;;;;;;;2.02;100.00;98028.97;102943;1310;73569;-75
2021/12/06 03:30:09;;;;;;;71.30;46.90;;;;;;;2.02;100.00;98029.67;102856;1310;62042;-76
2021/12/06 03:32:37;;;;;;;69.80;46.20;;;;;;;2.03;100.00;98027.33;102790;1313;62262;-76
2021/12/06 03:35:04;;;;;;;76.90;49.00;;;;;;;2.04;100.00;98017.33;102789;1314;76987;-77
2021/12/06 03:37:31;;;;;;;80.20;52.10;;;;;;;2.04;100.00;98018.14;104162;1313;70464;-74
2021/12/06 03:39:57;;;;;;;81.80;51.40;;;;;;;2.08;100.00;98018.70;105202;1313;74541;-75
2021/12/06 03:42:24;;;;;;;74.20;47.90;;;;;;;2.10;100.00;98021.03;105321;1313;60580;-74
2021/12/06 03:44:53;;;;;;;77.80;50.30;;;;;;;2.06;100.00;98023.02;105196;1320;61138;-73
2021/12/06 03:47:26;;;;;;;78.90;50.50;;;;;;;1.99;100.00;98021.73;104261;1313;76313;-76
2021/12/06 03:49:54;;;;;;;78.50;52.10;;;;;;;1.96;100.00;98026.59;102432;1313;68756;-75
2021/12/06 03:52:21;;;;;;;78.00;49.00;;;;;;;1.96;100.00;98026.79;102027;1316;74512;-75
2021/12/06 03:54:49;;;;;;;79.60;49.60;;;;;;;1.97;100.00;98028.86;102329;1313;62148;-79
2021/12/06 03:57:17;;;;;;;81.00;52.50;;;;;;;1.98;100.00;98032.10;102193;1314;62410;-76
2021/12/06 03:59:45;;;;;;;84.70;54.30;;;;;;;2.00;100.00;98034.67;102103;1313;77305;-76
2021/12/06 04:02:12;;;;;;;87.90;54.90;;;;;;;2.02;100.00;98037.23;102230;1313;70291;-77
2021/12/06 04:04:39;;;;;;;94.70;54.40;;;;;;;2.02;100.00;98033.17;102191;1313;74518;-76
2021/12/06 04:07:07;;;;;;;82.90;51.50;;;;;;;1.99;100.00;98035.05;102225;1314;62199;-76
2021/12/06 04:09:34;;;;;;;88.60;52.40;;;;;;;1.96;100.00;98035.02;102211;1316;62108;-77
2021/12/06 04:12:03;;;;;;;89.20;55.50;;;;;;;1.94;100.00;98030.73;102146;1313;77545;-75
2021/12/06 04:14:30;;;;;;;89.00;53.40;;;;;;;1.92;100.00;98031.71;102353;1314;69416;-75
2021/12/06 04:16:56;;;;;;;80.90;51.90;;;;;;;1.91;100.00;98037.89;102211;1313;74741;-75
2021/12/06 04:19:23;;;;;;;88.10;53.20;;;;;;;1.89;100.00;98041.48;102046;1316;62296;-75
2021/12/06 04:21:50;;;;;;;93.40;55.50;;;;;;;1.88;100.00;98041.90;102243;1313;62203;-75
2021/12/06 04:24:18;;;;;;;90.40;54.20;;;;;;;1.88;100.00;98042.56;101936;1316;76293;-75
2021/12/06 04:26:45;;;;;;;92.00;55.70;;;;;;;1.89;100.00;98041.14;102240;1313;70496;-76
2021/12/06 04:29:12;;;;;;;88.70;54.20;;;;;;;1.85;100.00;98043.95;102180;1313;73806;-75
2021/12/06 04:31:51;;;;;;;86.60;49.90;;;;;;;1.84;100.00;98039.11;102196;1313;62242;-75
2021/12/06 04:34:18;;;;;;;77.60;48.90;;;;;;;1.83;100.00;98046.51;102084;1316;62219;-76
2021/12/06 04:36:45;;;;;;;79.40;49.80;;;;;;;1.82;100.00;98060.89;102288;1313;77497;-76
2021/12/06 04:39:16;;;;;;;77.90;46.20;;;;;;;1.86;100.00;98080.83;102431;1308;68944;-76
2021/12/06 04:41:43;;;;;;;70.80;43.70;;;;;;;1.91;100.00;98088.49;101721;1313;237098;-75
2021/12/06 04:44:09;;;;;;;63.00;36.60;;;;;;;1.95;100.00;98087.99;102342;1311;62105;-76
2021/12/06 04:46:37;;;;;;;73.50;41.90;;;;;;;1.92;100.00;98075.82;102303;1310;62015;-75
2021/12/06 04:49:05;;;;;;;75.60;43.60;;;;;;;1.88;100.00;98070.95;102414;1310;77360;-74
2021/12/06 04:51:34;;;;;;;75.10;43.40;;;;;;;1.84;100.00;98064.50;102066;1311;70439;-75
2021/12/06 04:54:02;;;;;;;69.10;39.80;;;;;;;1.84;100.00;98063.80;102269;1311;73414;-76
2021/12/06 04:56:34;;;;;;;68.40;40.50;;;;;;;1.83;100.00;98067.84;101810;1319;62143;-75
2021/12/06 04:59:28;;;;;;;68.60;39.40;;;;;;;1.86;100.00;98070.20;101910;1316;62179;-76
2021/12/06 05:01:59;;;;;;;68.40;37.80;;;;;;;1.88;100.00;98073.73;101902;1317;77563;-77
2021/12/06 05:04:32;;;;;;;67.90;37.70;;;;;;;1.91;100.00;98080.81;102375;1313;70274;-77
2021/12/06 05:07:05;;;;;;;70.70;36.80;;;;;;;1.91;100.00;98086.76;102445;1310;74553;-74
2021/12/06 05:09:38;;;;;;;58.00;32.80;;;;;;;1.92;100.00;98093.52;102491;1310;62260;-74
2021/12/06 05:12:06;;;;;;;66.10;35.50;;;;;;;1.91;100.00;98094.45;102161;1314;62204;-78
2021/12/06 05:14:33;;;;;;;56.90;31.50;;;;;;;1.89;100.00;98098.21;102328;1310;76254;-77
2021/12/06 05:17:00;;;;;;;56.40;32.10;;;;;;;1.89;100.00;98105.95;102328;1310;69535;-75
2021/12/06 05:19:26;;;;;;;55.30;32.50;;;;;;;1.85;100.00;98104.02;102320;1313;74480;-75
2021/12/06 05:21:53;;;;;;;52.50;30.30;;;;;;;1.85;100.00;98109.29;102294;1310;62219;-75
2021/12/06 05:24:20;;;;;;;57.50;31.50;;;;;;;1.86;100.00;98108.16;102292;1310;62168;-75
2021/12/06 05:26:47;;;;;;;54.80;30.00;;;;;;;1.88;100.00;98114.40;102352;1310;77012;-77
2021/12/06 05:29:19;;;;;;;56.50;31.10;;;;;;;1.88;100.00;98120.52;102371;1310;70503;-77
2021/12/06 05:31:54;;;;;;;58.20;30.70;;;;;;;1.90;100.00;98128.84;101905;1317;71722;-75
2021/12/06 05:34:29;;;;;;;55.50;27.20;;;;;;;1.91;100.00;98133.14;102335;1310;62079;-75
2021/12/06 05:36:56;;;;;;;61.30;31.90;;;;;;;1.90;100.00;98131.48;102323;1311;62214;-76
2021/12/06 05:39:27;;;;;;;56.50;28.50;;;;;;;1.87;100.00;98135.09;102338;1310;76169;-76
2021/12/06 05:41:53;;;;;;;49.60;26.10;;;;;;;1.85;100.00;98136.95;102243;1313;70476;-76
2021/12/06 05:44:20;;;;;;;50.70;27.70;;;;;;;1.82;100.00;98138.99;102356;1310;72265;-76
2021/12/06 05:46:46;;;;;;;44.80;25.30;;;;;;;1.82;100.00;98143.77;102302;1310;62120;-76
2021/12/06 05:49:13;;;;;;;42.80;24.40;;;;;;;1.80;100.00;98152.60;102299;1310;62101;-76
2021/12/06 05:51:40;;;;;;;40.90;23.00;;;;;;;1.78;100.00;98155.52;102311;1310;77050;-75
2021/12/06 05:54:07;;;;;;;41.50;23.80;;;;;;;1.76;100.00;98151.02;102319;1314;70282;-75
2021/12/06 05:56:34;;;;;;;42.00;22.20;;;;;;;1.73;100.00;98147.13;102254;1311;73146;-75
2021/12/06 05:59:01;;;;;;;40.10;22.90;;;;;;;1.68;100.00;98143.65;102259;1310;62247;-76
2021/12/06 06:01:30;;;;;;;45.60;25.00;;;;;;;1.67;100.00;98144.24;102303;1310;62161;-77
2021/12/06 06:04:01;;;;;;;41.80;25.10;;;;;;;1.66;100.00;98146.02;102310;1310;78042;-76
2021/12/06 06:06:30;;;;;;;35.90;20.40;;;;;;;1.64;100.00;98145.77;102389;1310;69539;-75
2021/12/06 06:08:58;;;;;;;40.20;23.60;;;;;;;1.59;100.00;98149.52;102298;1310;74316;-76
2021/12/06 06:11:26;;;;;;;39.00;23.30;;;;;;;1.56;100.00;98152.11;102306;1311;62151;-76
2021/12/06 06:13:53;;;;;;;48.10;26.20;;;;;;;1.57;100.00;98151.16;102440;1310;62186;-75
2021/12/06 06:16:22;;;;;;;41.10;22.90;;;;;;;1.59;100.00;98152.30;102334;1314;76251;-75
2021/12/06 06:18:50;;;;;;;41.80;25.20;;;;;;;1.56;100.00;98148.73;101916;1316;70610;-77
2021/12/06 06:21:21;;;;;;;41.10;24.40;;;;;;;1.53;100.00;98154.99;102186;1313;73482;-74
2021/12/06 06:23:48;;;;;;;56.00;30.90;;;;;;;1.54;100.00;98160.58;102342;1314;62009;-77
2021/12/06 06:26:15;;;;;;;50.80;30.60;;;;;;;1.51;100.00;98157.02;102336;1310;62173;-77
2021/12/06 06:28:41;;;;;;;40.80;24.80;;;;;;;1.52;100.00;98163.63;102298;1310;76565;-75
2021/12/06 06:31:08;;;;;;;41.30;25.70;;;;;;;1.52;100.00;98165.36;102312;1311;69382;-76
2021/12/06 06:33:35;;;;;;;35.50;22.10;;;;;;;1.52;100.00;98159.42;102305;1311;73523;-75
2021/12/06 06:36:03;;;;;;;42.10;24.70;;;;;;;1.48;100.00;98163.46;102459;1310;62221;-75
2021/12/06 06:38:30;;;;;;;43.80;25.30;;;;;;;1.43;100.00;98173.14;102114;1316;62540;-75
2021/12/06 06:40:58;;;;;;;36.40;24.00;;;;;;;1.43;100.00;98179.98;102478;1313;76956;-77
2021/12/06 06:43:24;;;;;;;37.30;21.10;;;;;;;1.41;100.00;98187.77;103194;1310;70230;-76
2021/12/06 06:45:51;;;;;;;33.00;21.40;;;;;;;1.40;100.00;98195.68;103558;1310;74534;-77
2021/12/06 06:48:17;;;;;;;35.20;19.70;;;;;;;1.41;100.00;98203.64;103156;1314;62288;-76
2021/12/06 06:50:44;;;;;;;31.70;21.50;;;;;;;1.44;100.00;98207.05;102042;1311;62136;-76
2021/12/06 06:53:11;;;;;;;32.30;20.90;;;;;;;1.46;100.00;98208.70;102501;1310;75370;-76
2021/12/06 06:55:38;;;;;;;37.20;22.30;;;;;;;1.42;100.00;98214.80;102458;1310;69275;-77
2021/12/06 06:58:04;;;;;;;37.70;21.90;;;;;;;1.42;100.00;98225.34;102446;1311;74240;-74
2021/12/06 07:00:37;;;;;;;36.20;24.50;;;;;;;1.41;100.00;98219.42;102324;1310;62230;-77
2021/12/06 07:03:06;;;;;;;41.00;25.00;;;;;;;1.41;100.00;98226.40;102403;1310;62203;-75
2021/12/06 07:05:34;;;;;;;33.70;22.90;;;;;;;1.41;100.00;98228.34;102375;1310;76066;-76
2021/12/06 07:08:00;;;;;;;31.90;20.00;;;;;;;1.41;100.00;98229.22;102382;1310;69339;-75
2021/12/06 07:10:27;;;;;;;31.50;21.30;;;;;;;1.35;100.00;98229.12;102393;1311;72830;-76
2021/12/06 07:12:56;;;;;;;35.40;22.40;;;;;;;1.29;100.00;98231.27;102308;1310;62228;-78
2021/12/06 07:15:26;;;;;;;34.10;22.10;;;;;;;1.28;100.00;98232.73;102039;1310;62222;-79
2021/12/06 07:17:52;;;;;;;;;;;;;;;1.29;100.00;98234.26;102335;1310;75675;-77
2021/12/06 07:20:21;;;;;;;35.20;22.50;;;;;;;1.31;100.00;98235.39;102360;1310;68664;-79
2021/12/06 07:22:52;;;;;;;33.50;23.20;;;;;;;1.32;100.00;98239.75;102422;1310;73935;-76
2021/12/06 07:25:19;;;;;;;;;;;;;;;1.30;100.00;98236.66;102381;1310;62150;-76
2021/12/06 07:27:48;;;;;;;38.00;23.90;;;;;;;1.29;100.00;98238.11;101998;1318;62360;-77
2021/12/06 07:30:16;;;;;;;38.50;25.60;;;;;;;1.30;100.00;98247.17;102365;1313;75712;-78
2021/12/06 07:32:43;;;;;;;40.10;26.10;;;;;;;1.29;100.00;98250.17;102266;1316;69671;-78
2021/12/06 07:35:12;;;;;;;36.30;24.40;;;;;;;1.28;100.00;98256.89;101835;1316;73952;-78
2021/12/06 07:37:39;;;;;;;34.20;22.90;;;;;;;1.24;100.00;98257.25;102345;1310;62139;-77
2021/12/06 07:40:08;;;;;;;34.30;23.20;;;;;;;1.21;100.00;98256.47;102326;1311;62117;-79
2021/12/06 07:42:35;;;;;;;34.40;24.50;;;;;;;1.21;100.00;98256.65;102079;1316;77282;-80
2021/12/06 07:45:05;;;;;;;34.50;23.90;;;;;;;1.24;100.00;98258.81;102732;1310;69011;-81
2021/12/06 07:47:32;;;;;;;32.40;24.00;;;;;;;1.25;100.00;98264.19;102405;1313;74604;-81
2021/12/06 07:49:59;;;;;;;37.10;27.00;;;;;;;1.24;100.00;98263.70;102490;1310;62197;-82
2021/12/06 07:52:26;;;;;;;36.60;25.90;;;;;;;1.22;100.00;98259.77;102433;1311;62009;-83
2021/12/06 07:54:57;;;;;;;42.00;28.40;;;;;;;1.20;100.00;98255.30;102366;1310;77075;-79
2021/12/06 07:57:25;;;;;;;39.60;25.90;;;;;;;1.20;100.00;98253.90;101943;1316;70425;-82
2021/12/06 07:59:52;;;;;;;43.30;29.10;;;;;;;1.18;100.00;98249.59;102341;1314;74404;-75
2021/12/06 08:02:19;;;;;;;34.90;24.10;;;;;;;1.19;100.00;98248.86;102707;1316;62196;-75
2021/12/06 08:04:58;;;;;;;35.10;25.60;;;;;;;1.25;100.00;98252.10;102392;1311;62111;-80
2021/12/06 08:07:25;;;;;;;36.90;24.70;;;;;;;1.29;100.00;98254.55;102480;1313;77388;-83
2021/12/06 08:09:53;;;;;;;36.00;25.90;;;;;;;1.34;100.00;98253.81;102688;1310;69830;-82
2021/12/06 08:12:19;;;;;;;38.80;25.80;;;;;;;1.40;100.00;98251.66;102732;1310;73474;-78
2021/12/06 08:14:46;;;;;;;37.00;25.40;;;;;;;1.39;100.00;98253.78;101984;1314;62102;-76
2021/12/06 08:17:15;;;;;;;39.10;26.60;;;;;;;1.36;100.00;98257.25;102475;1314;62028;-74
2021/12/06 08:19:42;;;;;;;36.30;26.00;;;;;;;1.35;100.00;98255.37;102597;1314;76235;-77
2021/12/06 08:22:08;;;;;;;42.80;27.30;;;;;;;1.38;100.00;98256.49;102511;1310;69280;-79
2021/12/06 08:24:35;;;;;;;42.30;27.80;;;;;;;1.43;100.00;98254.68;102758;1314;73502;-79
2021/12/06 08:27:02;;;;;;;43.30;28.90;;;;;;;1.49;100.00;98255.27;102357;1317;62100;-78
2021/12/06 08:29:29;;;;;;;37.40;26.90;;;;;;;1.58;100.00;98259.83;102443;1310;62206;-78
2021/12/06 08:31:55;;;;;;;37.60;26.60;;;;;;;1.67;100.00;98257.15;102377;1310;76303;-78
2021/12/06 08:34:22;;;;;;;39.70;27.80;;;;;;;1.70;100.00;98258.09;102346;1313;69878;-78
2021/12/06 08:36:48;;;;;;;41.20;26.60;;;;;;;1.77;100.00;98264.79;102346;1310;73666;-78
2021/12/06 08:39:16;;;;;;;36.70;26.90;;;;;;;1.87;100.00;98266.09;102441;1311;62105;-82
2021/12/06 08:41:42;;;;;;;42.10;28.00;;;;;;;1.94;100.00;98270.35;102537;1314;62100;-80
2021/12/06 08:44:09;;;;;;;39.50;27.60;;;;;;;2.06;100.00;98268.61;102529;1313;75776;-80
2021/12/06 08:46:39;;;;;;;41.10;29.00;;;;;;;2.15;100.00;98264.86;102618;1311;70219;-82
2021/12/06 08:49:09;;;;;;;44.80;29.10;;;;;;;2.25;100.00;98271.79;102475;1319;74553;-77
2021/12/06 08:51:44;;;;;;;44.90;30.40;;;;;;;2.35;100.00;98276.45;102315;1313;62103;-77
2021/12/06 08:54:14;;;;;;;47.00;31.20;;;;;;;2.36;100.00;98279.38;102420;1310;62164;-76
2021/12/06 08:56:40;;;;;;;;;;;;;;;2.31;100.00;98279.96;102399;1313;77054;-76
2021/12/06 08:59:08;;;;;;;44.10;29.70;;;;;;;2.25;100.00;98287.59;102477;1314;71003;-77
2021/12/06 09:01:36;;;;;;;43.30;28.60;;;;;;;2.20;100.00;98287.77;102445;1310;73271;-76
2021/12/06 09:04:04;;;;;;;40.90;28.40;;;;;;;2.17;100.00;98294.07;102363;1310;62213;-77
2021/12/06 09:06:30;;;;;;;34.00;25.50;;;;;;;2.14;100.00;98294.39;101993;1317;62388;-77
2021/12/06 09:08:57;;;;;;;35.90;25.80;;;;;;;2.11;100.00;98291.67;102513;1310;77214;-80
2021/12/06 09:11:23;;;;;;;40.30;29.80;;;;;;;2.09;100.00;98294.41;102517;1310;69783;-78
2021/12/06 09:13:50;;;;;;;35.70;25.80;;;;;;;2.08;100.00;98295.85;102483;1310;62295;-78
2021/12/06 09:16:17;;;;;;;40.10;27.60;;;;;;;2.00;100.00;98294.80;102525;1310;62207;-77
2021/12/06 09:18:45;;;;;;;40.40;28.10;;;;;;;1.95;100.00;98292.91;102269;1310;62147;-77
2021/12/06 09:21:17;;;;;;;35.80;27.10;;;;;;;1.90;100.00;98299.09;102680;1314;77350;-78
2021/12/06 09:23:44;;;;;;;36.40;28.30;;;;;;;1.89;100.00;98299.48;102759;1310;69346;-77
2021/12/06 09:26:11;;;;;;;39.80;27.10;;;;;;;1.92;100.00;98298.33;102627;1310;73393;-76
2021/12/06 09:28:39;;;;;;;36.40;27.30;;;;;;;1.96;100.00;98300.41;102661;1310;62279;-77
2021/12/06 09:31:07;;;;;;;39.10;29.20;;;;;;;2.03;100.00;98301.33;102874;1314;62334;-77
2021/12/06 09:33:35;;;;;;;41.80;31.00;;;;;;;2.07;100.00;98302.40;102773;1317;75234;-77
2021/12/06 09:36:04;;;;;;;40.80;29.40;;;;;;;2.09;100.00;98298.27;103370;1310;70448;-77
2021/12/06 09:38:38;;;;;;;39.40;30.50;;;;;;;2.11;100.00;98298.86;103043;1313;73460;-78
2021/12/06 09:41:22;;;;;;;41.70;30.70;;;;;;;2.14;100.00;98302.77;103249;1310;62142;-76
2021/12/06 09:43:53;;;;;;;41.30;30.00;;;;;;;2.22;100.00;98296.13;103372;1311;62000;-77
2021/12/06 09:46:21;;;;;;;42.70;30.30;;;;;;;2.28;100.00;98296.89;104688;1318;76957;-77
2021/12/06 09:48:48;;;;;;;40.70;29.60;;;;;;;2.34;100.00;98295.05;102860;1318;70041;-75
2021/12/06 09:51:25;;;;;;;36.20;29.20;;;;;;;2.41;100.00;98292.11;102630;1310;74472;-77
2021/12/06 09:53:56;;;;;;;42.80;31.50;;;;;;;2.39;100.00;98293.45;102656;1313;62099;-75
2021/12/06 09:56:32;;;;;;;40.00;30.30;;;;;;;2.38;100.00;98293.30;102532;1310;62197;-76
2021/12/06 09:59:05;;;;;;;42.40;30.70;;;;;;;2.36;100.00;98291.29;102108;1316;77201;-76
2021/12/06 10:01:36;;;;;;;37.50;29.00;;;;;;;2.32;100.00;98293.23;102540;1310;69270;-76
2021/12/06 10:04:06;;;;;;;39.40;27.70;;;;;;;2.31;100.00;98297.11;102542;1310;73293;-76
2021/12/06 10:06:34;;;;;;;36.40;27.00;;;;;;;2.27;100.00;98299.06;102220;1314;62253;-76
2021/12/06 10:09:05;;;;;;;36.90;27.80;;;;;;;2.29;100.00;98304.20;102018;1316;62184;-75
2021/12/06 10:11:32;;;;;;;35.60;27.20;;;;;;;2.32;100.00;98304.98;102400;1310;75205;-77
2021/12/06 10:13:59;;;;;;;40.70;28.90;;;;;;;2.31;100.00;98307.11;102396;1310;69444;-77
2021/12/06 10:16:26;;;;;;;40.00;30.40;;;;;;;2.31;100.00;98307.63;102259;1316;74073;-77
2021/12/06 10:18:54;;;;;;;43.00;32.10;;;;;;;2.25;100.00;98307.38;102332;1314;62228;-75
2021/12/06 10:21:26;;;;;;;41.90;29.90;;;;;;;2.19;100.00;98303.27;102438;1310;62120;-82
2021/12/06 10:23:58;;;;;;;40.80;31.70;;;;;;;2.16;100.00;98299.91;102850;1318;77548;-77
2021/12/06 10:26:29;;;;;;;46.00;31.90;;;;;;;2.11;100.00;98298.72;104127;1317;69535;-75
2021/12/06 10:28:59;;;;;;;45.20;31.40;;;;;;;2.08;100.00;98295.16;102573;1313;73512;-76
2021/12/06 10:31:29;;;;;;;45.50;34.20;;;;;;;2.09;100.00;98294.42;102150;1316;62098;-75
2021/12/06 10:33:56;;;;;;;47.00;32.70;;;;;;;2.10;100.00;98295.80;102385;1310;62034;-76
2021/12/06 10:36:26;;;;;;;46.00;32.30;;;;;;;2.08;100.00;98297.80;102344;1310;75911;-76
2021/12/06 10:39:03;;;;;;;45.10;32.70;;;;;;;2.05;100.00;98290.56;102586;1310;70601;-75
2021/12/06 10:41:33;;;;;;;44.90;31.80;;;;;;;1.99;100.00;98297.64;102324;1310;74485;-76
2021/12/06 10:44:03;;;;;;;37.50;26.30;;;;;;;1.97;100.00;98298.97;102473;1310;62127;-76
2021/12/06 10:46:32;;;;;;;43.30;30.60;;;;;;;1.93;99.98;98300.90;102325;1310;62128;-77
2021/12/06 10:49:03;;;;;;;39.30;28.10;;;;;;;1.89;100.00;98305.09;102010;1316;76350;-75
2021/12/06 10:51:31;;;;;;;41.70;31.10;;;;;;;1.85;100.00;98307.19;102336;1317;69312;-75
2021/12/06 10:54:05;;;;;;;43.60;31.40;;;;;;;1.77;100.00;98309.81;102401;1310;74528;-75
2021/12/06 10:56:41;;;;;;;42.70;29.80;;;;;;;1.73;100.00;98304.69;102452;1311;62115;-76
2021/12/06 10:59:16;;;;;;;44.50;32.50;;;;;;;1.73;100.00;98308.20;102339;1310;62111;-77
2021/12/06 11:01:44;;;;;;;44.40;32.40;;;;;;;1.73;100.00;98312.61;102372;1317;77250;-77
2021/12/06 11:04:16;;;;;;;46.40;30.80;;;;;;;1.78;100.00;98314.36;102396;1311;70400;-77
2021/12/06 11:06:46;;;;;;;42.10;29.80;;;;;;;1.84;100.00;98313.04;102229;1314;74645;-76
2021/12/06 11:09:27;;;;;;;46.00;31.90;;;;;;;1.87;100.00;98311.82;102491;1310;62146;-76
2021/12/06 11:11:57;;;;;;;45.60;32.80;;;;;;;1.92;100.00;98311.46;102280;1316;63699;-79
2021/12/06 11:14:27;;;;;;;48.70;33.00;;;;;;;1.96;100.00;98315.45;102355;1316;77286;-79
2021/12/06 11:16:58;;;;;;;49.90;35.50;;;;;;;1.94;99.99;98314.31;102410;1310;70541;-79
2021/12/06 11:19:28;;;;;;;49.30;33.00;;;;;;;1.92;99.96;98314.58;101993;1313;72798;-80
2021/12/06 11:22:01;;;;;;;44.40;30.70;;;;;;;1.90;99.98;98315.40;102344;1317;62307;-79
2021/12/06 11:24:27;;;;;;;43.90;31.80;;;;;;;1.82;99.87;98313.63;101846;1317;63437;-78
2021/12/06 11:27:02;;;;;;;52.10;35.10;;;;;;;1.74;99.86;98313.08;102431;1310;76430;-76
2021/12/06 11:30:10;;;;;;;51.30;35.60;;;;;;;1.69;100.00;98309.61;102355;1310;69394;-78
2021/12/06 11:32:43;;;;;;;48.60;33.40;;;;;;;1.68;100.00;98317.16;101358;1325;72777;-79
2021/12/06 11:35:22;;;;;;;50.50;34.60;;;;;;;1.65;100.00;98322.22;101550;1318;62175;-75